sensor_id;sensor_type;location;lat;lon;timestamp;temperature;humidity
42019;DHT22;27703;51.980;5.848;2023-07-13T00:01:28;17.30;98.80
42019;DHT22;27703;51.980;5.848;2023-07-13T00:03:55;17.30;98.90
42019;DHT22;27703;51.980;5.848;2023-07-13T00:06:21;17.20;98.90
42019;DHT22;27703;51.980;5.848;2023-07-13T00:08:47;17.20;98.90
42019;DHT22;27703;51.980;5.848;2023-07-13T00:11:15;17.20;99.00
42019;DHT22;27703;51.980;5.848;2023-07-13T00:13:41;17.10;99.00
42019;DHT22;27703;51.980;5.848;2023-07-13T00:16:08;17.10;99.00
42019;DHT22;27703;51.980;5.848;2023-07-13T00:18:34;17.10;99.00
42019;DHT22;27703;51.980;5.848;2023-07-13T00:21:00;17.10;99.10
42019;DHT22;27703;51.980;5.848;2023-07-13T00:23:32;17.10;99.10
42019;DHT22;27703;51.980;5.848;2023-07-13T00:26:00;17.10;99.10
42019;DHT22;27703;51.980;5.848;2023-07-13T00:28:25;17.10;99.10
42019;DHT22;27703;51.980;5.848;2023-07-13T00:30:51;17.10;99.10
42019;DHT22;27703;51.980;5.848;2023-07-13T00:33:17;17.00;99.10
42019;DHT22;27703;51.980;5.848;2023-07-13T00:35:42;17.00;99.10
42019;DHT22;27703;51.980;5.848;2023-07-13T00:38:09;17.00;99.40
42019;DHT22;27703;51.980;5.848;2023-07-13T00:40:35;16.90;99.10
42019;DHT22;27703;51.980;5.848;2023-07-13T00:43:01;16.90;99.10
42019;DHT22;27703;51.980;5.848;2023-07-13T00:47:52;16.90;99.20
42019;DHT22;27703;51.980;5.848;2023-07-13T00:50:20;16.90;99.20
42019;DHT22;27703;51.980;5.848;2023-07-13T00:52:49;16.80;99.20
42019;DHT22;27703;51.980;5.848;2023-07-13T00:55:16;16.80;99.20
42019;DHT22;27703;51.980;5.848;2023-07-13T00:57:43;16.80;99.20
42019;DHT22;27703;51.980;5.848;2023-07-13T01:00:10;16.80;99.20
42019;DHT22;27703;51.980;5.848;2023-07-13T01:02:42;16.80;99.20
42019;DHT22;27703;51.980;5.848;2023-07-13T01:05:10;16.70;99.20
42019;DHT22;27703;51.980;5.848;2023-07-13T01:07:35;16.70;99.20
42019;DHT22;27703;51.980;5.848;2023-07-13T01:10:03;16.60;99.20
42019;DHT22;27703;51.980;5.848;2023-07-13T01:12:29;16.60;99.20
42019;DHT22;27703;51.980;5.848;2023-07-13T01:15:00;16.60;99.30
42019;DHT22;27703;51.980;5.848;2023-07-13T01:17:28;16.60;99.30
42019;DHT22;27703;51.980;5.848;2023-07-13T01:19:55;16.50;99.30
42019;DHT22;27703;51.980;5.848;2023-07-13T01:22:20;16.50;99.30
42019;DHT22;27703;51.980;5.848;2023-07-13T01:24:51;16.40;99.40
42019;DHT22;27703;51.980;5.848;2023-07-13T01:27:21;16.40;99.40
42019;DHT22;27703;51.980;5.848;2023-07-13T01:29:48;16.40;99.40
42019;DHT22;27703;51.980;5.848;2023-07-13T01:32:21;16.30;99.50
42019;DHT22;27703;51.980;5.848;2023-07-13T01:34:50;16.30;99.50
42019;DHT22;27703;51.980;5.848;2023-07-13T01:37:19;16.20;99.50
42019;DHT22;27703;51.980;5.848;2023-07-13T01:39:45;16.20;99.50
42019;DHT22;27703;51.980;5.848;2023-07-13T01:42:10;16.30;99.60
42019;DHT22;27703;51.980;5.848;2023-07-13T01:44:36;16.20;99.60
42019;DHT22;27703;51.980;5.848;2023-07-13T01:47:02;16.20;99.60
42019;DHT22;27703;51.980;5.848;2023-07-13T01:49:28;16.20;99.70
42019;DHT22;27703;51.980;5.848;2023-07-13T01:51:53;16.10;99.70
42019;DHT22;27703;51.980;5.848;2023-07-13T01:54:19;16.10;99.70
42019;DHT22;27703;51.980;5.848;2023-07-13T01:56:44;16.10;99.70
42019;DHT22;27703;51.980;5.848;2023-07-13T01:59:10;16.10;99.70
42019;DHT22;27703;51.980;5.848;2023-07-13T02:01:36;16.10;99.80
42019;DHT22;27703;51.980;5.848;2023-07-13T02:04:02;16.00;99.80
42019;DHT22;27703;51.980;5.848;2023-07-13T02:06:28;16.00;99.80
42019;DHT22;27703;51.980;5.848;2023-07-13T02:08:54;16.00;99.90
42019;DHT22;27703;51.980;5.848;2023-07-13T02:11:19;16.00;99.90
42019;DHT22;27703;51.980;5.848;2023-07-13T02:13:45;16.00;99.90
42019;DHT22;27703;51.980;5.848;2023-07-13T02:16:11;16.00;99.90
42019;DHT22;27703;51.980;5.848;2023-07-13T02:18:37;16.00;99.90
42019;DHT22;27703;51.980;5.848;2023-07-13T02:21:03;16.00;99.90
42019;DHT22;27703;51.980;5.848;2023-07-13T02:23:29;15.90;99.90
42019;DHT22;27703;51.980;5.848;2023-07-13T02:25:56;16.00;99.90
42019;DHT22;27703;51.980;5.848;2023-07-13T02:28:22;15.90;99.90
42019;DHT22;27703;51.980;5.848;2023-07-13T02:30:48;15.90;99.90
42019;DHT22;27703;51.980;5.848;2023-07-13T02:33:13;15.90;99.90
42019;DHT22;27703;51.980;5.848;2023-07-13T02:35:39;15.80;99.90
42019;DHT22;27703;51.980;5.848;2023-07-13T02:38:04;15.80;99.90
42019;DHT22;27703;51.980;5.848;2023-07-13T02:40:30;15.80;99.90
42019;DHT22;27703;51.980;5.848;2023-07-13T02:42:59;15.80;99.90
42019;DHT22;27703;51.980;5.848;2023-07-13T02:45:25;15.70;99.90
42019;DHT22;27703;51.980;5.848;2023-07-13T02:47:50;15.70;99.90
42019;DHT22;27703;51.980;5.848;2023-07-13T02:50:16;15.70;99.90
42019;DHT22;27703;51.980;5.848;2023-07-13T02:52:42;15.70;99.90
42019;DHT22;27703;51.980;5.848;2023-07-13T02:55:08;15.60;99.90
42019;DHT22;27703;51.980;5.848;2023-07-13T02:57:33;15.60;99.90
42019;DHT22;27703;51.980;5.848;2023-07-13T02:59:59;15.60;99.90
42019;DHT22;27703;51.980;5.848;2023-07-13T03:02:25;15.60;99.90
42019;DHT22;27703;51.980;5.848;2023-07-13T03:04:54;15.60;99.90
42019;DHT22;27703;51.980;5.848;2023-07-13T03:07:20;15.60;99.90
42019;DHT22;27703;51.980;5.848;2023-07-13T03:09:46;15.50;99.90
42019;DHT22;27703;51.980;5.848;2023-07-13T03:12:11;15.50;99.90
42019;DHT22;27703;51.980;5.848;2023-07-13T03:14:37;15.50;99.90
42019;DHT22;27703;51.980;5.848;2023-07-13T03:17:02;15.50;99.90
42019;DHT22;27703;51.980;5.848;2023-07-13T03:19:28;15.50;99.90
42019;DHT22;27703;51.980;5.848;2023-07-13T03:21:54;15.50;99.90
42019;DHT22;27703;51.980;5.848;2023-07-13T03:24:19;15.40;99.90
42019;DHT22;27703;51.980;5.848;2023-07-13T03:26:45;15.40;99.90
42019;DHT22;27703;51.980;5.848;2023-07-13T03:29:11;15.30;99.90
42019;DHT22;27703;51.980;5.848;2023-07-13T03:31:37;15.30;99.90
42019;DHT22;27703;51.980;5.848;2023-07-13T03:34:04;15.30;99.90
42019;DHT22;27703;51.980;5.848;2023-07-13T03:36:31;15.30;99.90
42019;DHT22;27703;51.980;5.848;2023-07-13T03:39:00;15.30;99.90
42019;DHT22;27703;51.980;5.848;2023-07-13T03:41:26;15.30;99.90
42019;DHT22;27703;51.980;5.848;2023-07-13T03:43:52;15.30;99.90
42019;DHT22;27703;51.980;5.848;2023-07-13T03:46:18;15.30;99.90
42019;DHT22;27703;51.980;5.848;2023-07-13T03:48:45;15.20;99.90
42019;DHT22;27703;51.980;5.848;2023-07-13T03:51:12;15.20;99.90
42019;DHT22;27703;51.980;5.848;2023-07-13T03:53:41;15.20;99.90
42019;DHT22;27703;51.980;5.848;2023-07-13T03:56:08;15.20;99.90
42019;DHT22;27703;51.980;5.848;2023-07-13T03:58:37;15.20;99.90
42019;DHT22;27703;51.980;5.848;2023-07-13T04:01:05;15.20;99.90
42019;DHT22;27703;51.980;5.848;2023-07-13T04:03:32;15.20;99.90
42019;DHT22;27703;51.980;5.848;2023-07-13T04:06:03;15.20;99.90
42019;DHT22;27703;51.980;5.848;2023-07-13T04:08:31;15.30;99.90
42019;DHT22;27703;51.980;5.848;2023-07-13T04:10:59;15.20;99.90
42019;DHT22;27703;51.980;5.848;2023-07-13T04:13:25;15.20;99.90
42019;DHT22;27703;51.980;5.848;2023-07-13T04:15:52;15.20;99.90
42019;DHT22;27703;51.980;5.848;2023-07-13T04:18:19;15.20;99.90
42019;DHT22;27703;51.980;5.848;2023-07-13T04:20:49;15.20;99.90
42019;DHT22;27703;51.980;5.848;2023-07-13T04:23:15;15.20;99.90
42019;DHT22;27703;51.980;5.848;2023-07-13T04:25:48;15.30;99.90
42019;DHT22;27703;51.980;5.848;2023-07-13T04:28:22;15.30;99.90
42019;DHT22;27703;51.980;5.848;2023-07-13T04:30:49;15.30;99.90
42019;DHT22;27703;51.980;5.848;2023-07-13T04:33:15;15.30;99.90
42019;DHT22;27703;51.980;5.848;2023-07-13T04:35:43;15.30;99.90
42019;DHT22;27703;51.980;5.848;2023-07-13T04:38:08;15.40;99.90
42019;DHT22;27703;51.980;5.848;2023-07-13T04:40:36;15.40;99.90
42019;DHT22;27703;51.980;5.848;2023-07-13T04:43:02;15.40;99.90
42019;DHT22;27703;51.980;5.848;2023-07-13T04:45:28;15.50;99.90
42019;DHT22;27703;51.980;5.848;2023-07-13T04:47:53;15.50;99.90
42019;DHT22;27703;51.980;5.848;2023-07-13T04:50:19;15.50;99.90
42019;DHT22;27703;51.980;5.848;2023-07-13T04:52:51;15.50;99.90
42019;DHT22;27703;51.980;5.848;2023-07-13T04:55:18;15.60;99.90
42019;DHT22;27703;51.980;5.848;2023-07-13T04:57:44;15.60;99.90
42019;DHT22;27703;51.980;5.848;2023-07-13T05:00:10;15.60;99.90
42019;DHT22;27703;51.980;5.848;2023-07-13T05:02:38;15.60;99.90
42019;DHT22;27703;51.980;5.848;2023-07-13T05:05:05;15.60;99.90
42019;DHT22;27703;51.980;5.848;2023-07-13T05:07:31;15.60;99.90
42019;DHT22;27703;51.980;5.848;2023-07-13T05:09:59;15.60;99.90
42019;DHT22;27703;51.980;5.848;2023-07-13T05:12:25;15.60;99.90
42019;DHT22;27703;51.980;5.848;2023-07-13T05:14:51;15.70;99.90
42019;DHT22;27703;51.980;5.848;2023-07-13T05:17:16;15.70;99.90
42019;DHT22;27703;51.980;5.848;2023-07-13T05:19:42;15.70;99.90
42019;DHT22;27703;51.980;5.848;2023-07-13T05:22:08;15.70;99.90
42019;DHT22;27703;51.980;5.848;2023-07-13T05:24:34;15.70;99.90
42019;DHT22;27703;51.980;5.848;2023-07-13T05:26:59;15.70;99.90
42019;DHT22;27703;51.980;5.848;2023-07-13T05:29:25;15.70;99.90
42019;DHT22;27703;51.980;5.848;2023-07-13T05:31:51;15.80;99.90
42019;DHT22;27703;51.980;5.848;2023-07-13T05:34:17;15.80;99.90
42019;DHT22;27703;51.980;5.848;2023-07-13T05:36:42;15.80;99.90
42019;DHT22;27703;51.980;5.848;2023-07-13T05:39:08;15.90;99.90
42019;DHT22;27703;51.980;5.848;2023-07-13T05:41:35;15.90;99.90
42019;DHT22;27703;51.980;5.848;2023-07-13T05:44:00;15.90;99.90
42019;DHT22;27703;51.980;5.848;2023-07-13T05:46:27;15.90;99.90
42019;DHT22;27703;51.980;5.848;2023-07-13T05:48:52;16.00;99.90
42019;DHT22;27703;51.980;5.848;2023-07-13T05:51:18;16.00;99.90
42019;DHT22;27703;51.980;5.848;2023-07-13T05:53:44;16.00;99.90
42019;DHT22;27703;51.980;5.848;2023-07-13T05:56:09;16.00;99.90
42019;DHT22;27703;51.980;5.848;2023-07-13T05:58:35;16.10;99.90
42019;DHT22;27703;51.980;5.848;2023-07-13T06:01:10;16.20;99.90
42019;DHT22;27703;51.980;5.848;2023-07-13T06:03:36;16.20;99.90
42019;DHT22;27703;51.980;5.848;2023-07-13T06:06:06;16.20;99.90
42019;DHT22;27703;51.980;5.848;2023-07-13T06:08:33;16.30;99.90
42019;DHT22;27703;51.980;5.848;2023-07-13T06:11:07;16.30;99.90
42019;DHT22;27703;51.980;5.848;2023-07-13T06:13:33;16.50;99.90
42019;DHT22;27703;51.980;5.848;2023-07-13T06:16:00;16.50;99.90
42019;DHT22;27703;51.980;5.848;2023-07-13T06:18:26;16.50;99.90
42019;DHT22;27703;51.980;5.848;2023-07-13T06:20:51;16.50;99.90
42019;DHT22;27703;51.980;5.848;2023-07-13T06:23:17;16.60;99.90
42019;DHT22;27703;51.980;5.848;2023-07-13T06:25:43;16.60;99.90
42019;DHT22;27703;51.980;5.848;2023-07-13T06:28:08;16.70;99.90
42019;DHT22;27703;51.980;5.848;2023-07-13T06:30:34;16.80;99.90
42019;DHT22;27703;51.980;5.848;2023-07-13T06:33:00;16.80;99.90
42019;DHT22;27703;51.980;5.848;2023-07-13T06:35:25;16.90;99.90
42019;DHT22;27703;51.980;5.848;2023-07-13T06:37:51;17.00;99.90
42019;DHT22;27703;51.980;5.848;2023-07-13T06:40:17;17.10;99.90
42019;DHT22;27703;51.980;5.848;2023-07-13T06:42:42;17.20;99.90
42019;DHT22;27703;51.980;5.848;2023-07-13T06:45:08;17.30;99.90
42019;DHT22;27703;51.980;5.848;2023-07-13T06:47:34;17.40;99.90
42019;DHT22;27703;51.980;5.848;2023-07-13T06:50:00;17.50;99.90
42019;DHT22;27703;51.980;5.848;2023-07-13T06:52:26;17.50;99.90
42019;DHT22;27703;51.980;5.848;2023-07-13T06:54:51;17.50;99.90
42019;DHT22;27703;51.980;5.848;2023-07-13T06:57:17;17.60;99.90
42019;DHT22;27703;51.980;5.848;2023-07-13T06:59:43;17.80;99.90
42019;DHT22;27703;51.980;5.848;2023-07-13T07:02:10;17.80;99.90
42019;DHT22;27703;51.980;5.848;2023-07-13T07:04:36;17.80;99.90
42019;DHT22;27703;51.980;5.848;2023-07-13T07:07:01;17.90;99.90
42019;DHT22;27703;51.980;5.848;2023-07-13T07:09:27;17.90;99.90
42019;DHT22;27703;51.980;5.848;2023-07-13T07:11:55;17.90;99.90
42019;DHT22;27703;51.980;5.848;2023-07-13T07:14:20;17.90;99.90
42019;DHT22;27703;51.980;5.848;2023-07-13T07:16:46;18.00;99.90
42019;DHT22;27703;51.980;5.848;2023-07-13T07:19:11;17.90;99.90
42019;DHT22;27703;51.980;5.848;2023-07-13T07:21:37;17.90;99.90
42019;DHT22;27703;51.980;5.848;2023-07-13T07:24:03;17.90;99.90
42019;DHT22;27703;51.980;5.848;2023-07-13T07:26:30;17.80;99.90
42019;DHT22;27703;51.980;5.848;2023-07-13T07:28:55;17.80;99.90
42019;DHT22;27703;51.980;5.848;2023-07-13T07:31:21;17.90;99.90
42019;DHT22;27703;51.980;5.848;2023-07-13T07:33:47;17.90;99.90
42019;DHT22;27703;51.980;5.848;2023-07-13T07:36:15;18.00;99.90
42019;DHT22;27703;51.980;5.848;2023-07-13T07:38:41;18.10;99.90
42019;DHT22;27703;51.980;5.848;2023-07-13T07:41:07;18.10;99.90
42019;DHT22;27703;51.980;5.848;2023-07-13T07:43:33;18.10;99.90
42019;DHT22;27703;51.980;5.848;2023-07-13T07:45:59;18.20;99.90
42019;DHT22;27703;51.980;5.848;2023-07-13T07:48:24;18.30;99.90
42019;DHT22;27703;51.980;5.848;2023-07-13T07:50:50;18.50;99.90
42019;DHT22;27703;51.980;5.848;2023-07-13T07:53:15;18.60;99.90
42019;DHT22;27703;51.980;5.848;2023-07-13T07:55:41;18.70;99.90
42019;DHT22;27703;51.980;5.848;2023-07-13T07:58:07;18.70;99.90
42019;DHT22;27703;51.980;5.848;2023-07-13T08:00:33;18.70;99.90
42019;DHT22;27703;51.980;5.848;2023-07-13T08:02:59;18.70;99.90
42019;DHT22;27703;51.980;5.848;2023-07-13T08:05:25;18.80;99.90
42019;DHT22;27703;51.980;5.848;2023-07-13T08:07:51;18.80;99.90
42019;DHT22;27703;51.980;5.848;2023-07-13T08:10:17;19.00;99.90
42019;DHT22;27703;51.980;5.848;2023-07-13T08:12:43;19.10;99.90
42019;DHT22;27703;51.980;5.848;2023-07-13T08:15:14;19.20;99.90
42019;DHT22;27703;51.980;5.848;2023-07-13T08:17:40;19.30;99.90
42019;DHT22;27703;51.980;5.848;2023-07-13T08:20:07;19.20;99.90
42019;DHT22;27703;51.980;5.848;2023-07-13T08:22:33;19.10;99.90
42019;DHT22;27703;51.980;5.848;2023-07-13T08:24:59;19.20;99.90
42019;DHT22;27703;51.980;5.848;2023-07-13T08:27:27;19.40;99.90
42019;DHT22;27703;51.980;5.848;2023-07-13T08:29:53;19.60;99.90
42019;DHT22;27703;51.980;5.848;2023-07-13T08:32:20;19.70;99.90
42019;DHT22;27703;51.980;5.848;2023-07-13T08:34:46;19.90;99.90
42019;DHT22;27703;51.980;5.848;2023-07-13T08:37:12;20.00;99.90
42019;DHT22;27703;51.980;5.848;2023-07-13T08:39:38;20.10;99.90
42019;DHT22;27703;51.980;5.848;2023-07-13T08:42:09;20.20;99.90
42019;DHT22;27703;51.980;5.848;2023-07-13T08:45:03;20.10;99.90
42019;DHT22;27703;51.980;5.848;2023-07-13T08:47:32;20.00;99.90
42019;DHT22;27703;51.980;5.848;2023-07-13T08:50:01;19.80;99.90
42019;DHT22;27703;51.980;5.848;2023-07-13T08:52:40;19.50;99.90
42019;DHT22;27703;51.980;5.848;2023-07-13T08:55:18;19.40;99.90
42019;DHT22;27703;51.980;5.848;2023-07-13T08:57:54;19.30;99.90
42019;DHT22;27703;51.980;5.848;2023-07-13T09:00:23;19.50;99.90
42019;DHT22;27703;51.980;5.848;2023-07-13T09:02:57;19.70;99.90
42019;DHT22;27703;51.980;5.848;2023-07-13T09:05:37;19.90;99.90
42019;DHT22;27703;51.980;5.848;2023-07-13T09:10:45;20.40;99.60
42019;DHT22;27703;51.980;5.848;2023-07-13T09:16:11;20.60;99.20
42019;DHT22;27703;51.980;5.848;2023-07-13T09:18:41;20.50;98.90
42019;DHT22;27703;51.980;5.848;2023-07-13T09:21:14;20.50;99.00
42019;DHT22;27703;51.980;5.848;2023-07-13T09:23:41;20.60;98.70
42019;DHT22;27703;51.980;5.848;2023-07-13T09:26:14;20.60;98.50
42019;DHT22;27703;51.980;5.848;2023-07-13T09:28:43;20.50;98.50
42019;DHT22;27703;51.980;5.848;2023-07-13T09:31:19;20.40;98.50
42019;DHT22;27703;51.980;5.848;2023-07-13T09:33:47;20.20;99.20
42019;DHT22;27703;51.980;5.848;2023-07-13T09:36:21;19.90;99.90
42019;DHT22;27703;51.980;5.848;2023-07-13T09:39:04;19.50;99.90
42019;DHT22;27703;51.980;5.848;2023-07-13T09:41:55;19.40;99.90
42019;DHT22;27703;51.980;5.848;2023-07-13T09:44:33;19.20;99.90
42019;DHT22;27703;51.980;5.848;2023-07-13T09:46:59;19.00;99.90
42019;DHT22;27703;51.980;5.848;2023-07-13T09:49:26;18.90;99.90
42019;DHT22;27703;51.980;5.848;2023-07-13T09:52:05;18.90;99.90
42019;DHT22;27703;51.980;5.848;2023-07-13T09:54:34;19.00;99.90
42019;DHT22;27703;51.980;5.848;2023-07-13T09:57:01;19.20;99.90
42019;DHT22;27703;51.980;5.848;2023-07-13T09:59:35;19.30;99.90
42019;DHT22;27703;51.980;5.848;2023-07-13T10:02:02;19.20;99.90
42019;DHT22;27703;51.980;5.848;2023-07-13T10:07:29;19.40;99.90
42019;DHT22;27703;51.980;5.848;2023-07-13T10:09:56;19.60;99.90
42019;DHT22;27703;51.980;5.848;2023-07-13T10:12:22;19.90;99.90
42019;DHT22;27703;51.980;5.848;2023-07-13T10:14:59;20.20;99.90
42019;DHT22;27703;51.980;5.848;2023-07-13T10:17:32;20.50;99.90
42019;DHT22;27703;51.980;5.848;2023-07-13T10:20:04;20.70;99.90
42019;DHT22;27703;51.980;5.848;2023-07-13T10:23:01;20.80;99.90
42019;DHT22;27703;51.980;5.848;2023-07-13T10:25:33;21.10;99.90
42019;DHT22;27703;51.980;5.848;2023-07-13T10:28:29;21.30;99.20
42019;DHT22;27703;51.980;5.848;2023-07-13T10:30:56;21.40;98.80
42019;DHT22;27703;51.980;5.848;2023-07-13T10:33:23;21.30;98.90
42019;DHT22;27703;51.980;5.848;2023-07-13T10:35:52;21.20;98.60
42019;DHT22;27703;51.980;5.848;2023-07-13T10:38:22;21.00;98.70
42019;DHT22;27703;51.980;5.848;2023-07-13T10:40:56;20.80;98.60
42019;DHT22;27703;51.980;5.848;2023-07-13T10:43:28;20.70;98.60
42019;DHT22;27703;51.980;5.848;2023-07-13T10:45:59;20.50;98.80
42019;DHT22;27703;51.980;5.848;2023-07-13T10:48:25;20.30;99.50
42019;DHT22;27703;51.980;5.848;2023-07-13T10:50:52;20.00;99.90
42019;DHT22;27703;51.980;5.848;2023-07-13T10:53:33;19.70;99.90
42019;DHT22;27703;51.980;5.848;2023-07-13T10:56:22;19.60;99.90
42019;DHT22;27703;51.980;5.848;2023-07-13T10:58:46;19.80;99.90
42019;DHT22;27703;51.980;5.848;2023-07-13T11:01:16;20.10;99.90
42019;DHT22;27703;51.980;5.848;2023-07-13T11:03:55;20.50;99.90
42019;DHT22;27703;51.980;5.848;2023-07-13T11:08:57;21.00;99.90
42019;DHT22;27703;51.980;5.848;2023-07-13T11:13:59;21.30;99.90
42019;DHT22;27703;51.980;5.848;2023-07-13T11:16:36;21.30;99.20
42019;DHT22;27703;51.980;5.848;2023-07-13T11:21:31;21.10;98.50
42019;DHT22;27703;51.980;5.848;2023-07-13T11:24:13;21.10;98.50
42019;DHT22;27703;51.980;5.848;2023-07-13T11:31:41;21.10;97.50
42019;DHT22;27703;51.980;5.848;2023-07-13T11:34:15;21.20;97.30
42019;DHT22;27703;51.980;5.848;2023-07-13T11:36:43;21.40;96.80
42019;DHT22;27703;51.980;5.848;2023-07-13T11:39:16;21.50;96.50
42019;DHT22;27703;51.980;5.848;2023-07-13T11:41:55;21.70;96.50
42019;DHT22;27703;51.980;5.848;2023-07-13T11:44:24;22.00;96.00
42019;DHT22;27703;51.980;5.848;2023-07-13T11:46:52;22.10;95.90
42019;DHT22;27703;51.980;5.848;2023-07-13T11:49:24;22.30;95.50
42019;DHT22;27703;51.980;5.848;2023-07-13T11:51:51;22.50;95.60
42019;DHT22;27703;51.980;5.848;2023-07-13T11:54:34;22.70;95.60
42019;DHT22;27703;51.980;5.848;2023-07-13T11:57:36;22.70;95.30
42019;DHT22;27703;51.980;5.848;2023-07-13T12:00:17;22.50;95.20
42019;DHT22;27703;51.980;5.848;2023-07-13T12:02:46;22.30;95.30
42019;DHT22;27703;51.980;5.848;2023-07-13T12:05:16;22.00;95.60
42019;DHT22;27703;51.980;5.848;2023-07-13T12:07:43;21.70;95.80
42019;DHT22;27703;51.980;5.848;2023-07-13T12:12:37;21.30;96.60
42019;DHT22;27703;51.980;5.848;2023-07-13T12:15:10;21.20;96.90
42019;DHT22;27703;51.980;5.848;2023-07-13T12:17:36;21.30;97.20
42019;DHT22;27703;51.980;5.848;2023-07-13T12:20:11;21.50;97.00
42019;DHT22;27703;51.980;5.848;2023-07-13T12:22:46;21.60;97.00
42019;DHT22;27703;51.980;5.848;2023-07-13T12:25:13;21.60;96.90
42019;DHT22;27703;51.980;5.848;2023-07-13T12:27:39;21.80;96.60
42019;DHT22;27703;51.980;5.848;2023-07-13T12:33:08;22.40;95.90
42019;DHT22;27703;51.980;5.848;2023-07-13T12:35:47;22.60;95.30
42019;DHT22;27703;51.980;5.848;2023-07-13T12:38:16;22.80;94.50
42019;DHT22;27703;51.980;5.848;2023-07-13T12:40:41;22.60;94.20
42019;DHT22;27703;51.980;5.848;2023-07-13T12:43:14;22.40;94.70
42019;DHT22;27703;51.980;5.848;2023-07-13T12:45:58;22.20;95.20
42019;DHT22;27703;51.980;5.848;2023-07-13T12:48:25;22.20;95.20
42019;DHT22;27703;51.980;5.848;2023-07-13T12:50:53;22.20;95.30
42019;DHT22;27703;51.980;5.848;2023-07-13T12:53:23;22.10;95.30
42019;DHT22;27703;51.980;5.848;2023-07-13T12:55:57;22.00;95.50
42019;DHT22;27703;51.980;5.848;2023-07-13T12:58:37;22.10;95.60
42019;DHT22;27703;51.980;5.848;2023-07-13T13:01:05;22.20;95.70
42019;DHT22;27703;51.980;5.848;2023-07-13T13:03:35;22.20;95.60
42019;DHT22;27703;51.980;5.848;2023-07-13T13:06:06;22.30;95.70
42019;DHT22;27703;51.980;5.848;2023-07-13T13:08:34;22.50;95.40
42019;DHT22;27703;51.980;5.848;2023-07-13T13:11:01;22.70;95.20
42019;DHT22;27703;51.980;5.848;2023-07-13T13:13:27;22.90;95.00
42019;DHT22;27703;51.980;5.848;2023-07-13T13:15:54;23.20;94.80
42019;DHT22;27703;51.980;5.848;2023-07-13T13:18:21;23.30;94.40
42019;DHT22;27703;51.980;5.848;2023-07-13T13:20:48;23.40;93.40
42019;DHT22;27703;51.980;5.848;2023-07-13T13:23:17;23.40;93.70
42019;DHT22;27703;51.980;5.848;2023-07-13T13:25:46;23.70;93.30
42019;DHT22;27703;51.980;5.848;2023-07-13T13:28:18;23.90;92.90
42019;DHT22;27703;51.980;5.848;2023-07-13T13:30:46;24.10;92.40
42019;DHT22;27703;51.980;5.848;2023-07-13T13:33:15;24.30;91.60
42019;DHT22;27703;51.980;5.848;2023-07-13T13:35:42;24.20;91.10
42019;DHT22;27703;51.980;5.848;2023-07-13T13:38:13;23.90;91.10
42019;DHT22;27703;51.980;5.848;2023-07-13T13:40:40;23.90;91.20
42019;DHT22;27703;51.980;5.848;2023-07-13T13:43:21;24.00;91.40
42019;DHT22;27703;51.980;5.848;2023-07-13T13:45:52;24.20;91.20
42019;DHT22;27703;51.980;5.848;2023-07-13T13:48:20;24.50;91.10
42019;DHT22;27703;51.980;5.848;2023-07-13T13:50:48;24.80;90.70
42019;DHT22;27703;51.980;5.848;2023-07-13T13:53:14;24.90;90.30
42019;DHT22;27703;51.980;5.848;2023-07-13T13:55:40;24.90;90.20
42019;DHT22;27703;51.980;5.848;2023-07-13T13:58:10;24.90;88.30
42019;DHT22;27703;51.980;5.848;2023-07-13T14:00:39;24.90;88.10
42019;DHT22;27703;51.980;5.848;2023-07-13T14:03:08;25.00;87.60
42019;DHT22;27703;51.980;5.848;2023-07-13T14:05:39;25.00;87.50
42019;DHT22;27703;51.980;5.848;2023-07-13T14:08:18;24.80;87.20
42019;DHT22;27703;51.980;5.848;2023-07-13T14:10:49;24.70;87.30
42019;DHT22;27703;51.980;5.848;2023-07-13T14:13:23;24.40;87.80
42019;DHT22;27703;51.980;5.848;2023-07-13T14:15:52;24.20;87.70
42019;DHT22;27703;51.980;5.848;2023-07-13T14:18:18;24.30;88.00
42019;DHT22;27703;51.980;5.848;2023-07-13T14:20:44;24.30;88.00
42019;DHT22;27703;51.980;5.848;2023-07-13T14:23:13;24.20;88.00
42019;DHT22;27703;51.980;5.848;2023-07-13T14:25:39;24.20;88.70
42019;DHT22;27703;51.980;5.848;2023-07-13T14:30:42;24.60;87.70
42019;DHT22;27703;51.980;5.848;2023-07-13T14:33:09;24.40;87.70
42019;DHT22;27703;51.980;5.848;2023-07-13T14:35:35;24.20;88.00
42019;DHT22;27703;51.980;5.848;2023-07-13T14:38:00;24.10;88.40
42019;DHT22;27703;51.980;5.848;2023-07-13T14:40:30;24.00;88.50
42019;DHT22;27703;51.980;5.848;2023-07-13T14:42:56;23.80;88.50
42019;DHT22;27703;51.980;5.848;2023-07-13T14:45:21;23.70;88.00
42019;DHT22;27703;51.980;5.848;2023-07-13T14:47:47;23.60;87.50
42019;DHT22;27703;51.980;5.848;2023-07-13T14:50:14;23.60;87.70
42019;DHT22;27703;51.980;5.848;2023-07-13T14:52:41;23.50;87.40
42019;DHT22;27703;51.980;5.848;2023-07-13T14:55:16;23.30;87.80
42019;DHT22;27703;51.980;5.848;2023-07-13T14:57:42;23.20;88.30
42019;DHT22;27703;51.980;5.848;2023-07-13T15:02:52;23.10;88.90
42019;DHT22;27703;51.980;5.848;2023-07-13T15:05:24;23.00;88.90
42019;DHT22;27703;51.980;5.848;2023-07-13T15:07:56;23.00;89.50
42019;DHT22;27703;51.980;5.848;2023-07-13T15:10:27;23.00;89.70
42019;DHT22;27703;51.980;5.848;2023-07-13T15:13:01;23.10;89.90
42019;DHT22;27703;51.980;5.848;2023-07-13T15:15:38;23.10;89.70
42019;DHT22;27703;51.980;5.848;2023-07-13T15:18:06;23.10;89.90
42019;DHT22;27703;51.980;5.848;2023-07-13T15:20:34;23.10;90.00
42019;DHT22;27703;51.980;5.848;2023-07-13T15:23:01;23.00;90.00
42019;DHT22;27703;51.980;5.848;2023-07-13T15:25:29;22.90;90.00
42019;DHT22;27703;51.980;5.848;2023-07-13T15:27:57;22.80;90.20
42019;DHT22;27703;51.980;5.848;2023-07-13T15:30:27;22.70;90.30
42019;DHT22;27703;51.980;5.848;2023-07-13T15:32:53;22.60;90.40
42019;DHT22;27703;51.980;5.848;2023-07-13T15:35:21;22.40;90.50
42019;DHT22;27703;51.980;5.848;2023-07-13T15:37:48;22.30;90.50
42019;DHT22;27703;51.980;5.848;2023-07-13T15:40:15;22.30;90.50
42019;DHT22;27703;51.980;5.848;2023-07-13T15:42:42;22.20;90.40
42019;DHT22;27703;51.980;5.848;2023-07-13T15:45:20;22.20;90.60
42019;DHT22;27703;51.980;5.848;2023-07-13T15:47:48;22.10;90.70
42019;DHT22;27703;51.980;5.848;2023-07-13T15:50:21;22.10;90.60
42019;DHT22;27703;51.980;5.848;2023-07-13T15:52:50;22.20;90.70
42019;DHT22;27703;51.980;5.848;2023-07-13T15:55:17;22.30;90.60
42019;DHT22;27703;51.980;5.848;2023-07-13T15:57:47;22.40;90.60
42019;DHT22;27703;51.980;5.848;2023-07-13T16:02:46;22.40;91.00
42019;DHT22;27703;51.980;5.848;2023-07-13T16:05:12;22.50;91.30
42019;DHT22;27703;51.980;5.848;2023-07-13T16:07:38;22.60;91.30
42019;DHT22;27703;51.980;5.848;2023-07-13T16:10:04;22.50;91.20
42019;DHT22;27703;51.980;5.848;2023-07-13T16:12:29;22.40;91.30
42019;DHT22;27703;51.980;5.848;2023-07-13T16:14:55;22.40;91.60